الصفحة الرئيسية
METAR-TAF:

METAR-TAF

مطار :

بانيا لوكا, البوسنة والهرسك

دائرة عرض: 44-47N, خط طول: 017-13E, ارتفاع: 156 متر

مراقبة الطقس الحالي

تاريخ ووقت الإصدار 53 دقيقة قبل الساعة 18:00UTC
ريح 6 عقدة من الغرب
درجة الحرارة 15°درجة مئوية
الرطوبة 23%
ضغط 1017 hPa
الرؤية 10 كم أو أكثر
الغيوم لا تقل 1500 م ولا وجود لمزنة ركامية السحاب الأسود

METAR: LQBK 041800Z 26006KT CAVOK 15/M06 Q1017 NOSIG

زمن: 19:53 (18:53 UTC)

توقعات

تاريخ ووقت الإصدار 1ساعة و 53 دقيقة قبل الساعة 17:00UTC
التوقعات صالحة من04 الساعة 18 UTC إلى 05 الساعة 18 UTC
ريح 5 عقدة من الجنوب
الرؤية 10 كم أو أكثر
الغيوم لا تقل 1500 م ولا وجود لمزنة ركامية السحاب الأسود
مؤقت
من 05 الساعة 10 UTC إلى 05 الساعة 15 UTC
ريح 10 عقدة من الغرب
أصبح
من 05 الساعة 15 UTC إلى 05 الساعة 17 UTC
ريح 12 عقدة من الشمال
مطر

TAF: LQBK 041700Z 0418/0518 19005KT CAVOK TX17/0513Z TN07/0506Z TEMPO 0510/0515 27010KT BECMG 0515/0517 35012KT RA

أرصاد الطقس والتوقعات من أكثر من 4000 مطار (تقارير الطقس للمطار METAR والتنبؤ بالطقس بالمطارTAF).

المحطات المتاحة هي النقط الصفراء والحمراء على الخريطة.

حرك المؤشر فوق النقطة لمعرفة اسم المحطة.

ثم انقر لمعرفة أرصاد وتوقعات الطقس.

لتغيير الخارطة: اضغط على الأزرار الخضراء مع رمز الصليب الأسود للتكبير. على الزر الأخضر مع شرطة للتصغير، أو على الأسهم الخضراء للخرائط المجاورة.


METAR-TAF: